createdAt,value
2023-04-16T00:00:31.668Z,0
2023-04-16T00:01:31.696Z,0
2023-04-16T00:02:31.776Z,0
2023-04-16T00:03:31.819Z,0
2023-04-16T00:04:31.779Z,0
2023-04-16T00:05:31.745Z,0
2023-04-16T00:06:31.642Z,0
2023-04-16T00:07:31.659Z,0
2023-04-16T00:08:31.663Z,0
2023-04-16T00:09:31.690Z,0
2023-04-16T00:10:31.673Z,0
2023-04-16T00:11:31.668Z,0
2023-04-16T00:12:31.696Z,0
2023-04-16T00:13:31.662Z,0
2023-04-16T00:14:31.642Z,0
2023-04-16T00:15:31.661Z,0
2023-04-16T00:16:31.658Z,0
2023-04-16T00:17:31.732Z,0
2023-04-16T00:18:31.624Z,0
2023-04-16T00:19:31.734Z,0
2023-04-16T00:20:31.640Z,0
2023-04-16T00:21:31.673Z,0
2023-04-16T00:22:31.653Z,0
2023-04-16T00:23:31.677Z,0
2023-04-16T00:24:31.676Z,0
2023-04-16T00:25:31.650Z,0
2023-04-16T00:26:31.647Z,0
2023-04-16T00:27:31.662Z,0
2023-04-16T00:28:31.656Z,0
2023-04-16T00:29:31.663Z,0
2023-04-16T00:30:31.670Z,0
2023-04-16T00:31:31.700Z,0
2023-04-16T00:32:31.680Z,0
2023-04-16T00:33:31.633Z,0
2023-04-16T00:34:31.649Z,0
2023-04-16T00:35:31.639Z,0
2023-04-16T00:36:31.707Z,0
2023-04-16T00:37:31.651Z,0
2023-04-16T00:38:31.633Z,0
2023-04-16T00:39:31.632Z,0
2023-04-16T00:40:31.691Z,0
2023-04-16T00:41:31.707Z,0
2023-04-16T00:42:31.634Z,0
2023-04-16T00:43:31.702Z,0
2023-04-16T00:44:31.659Z,0
2023-04-16T00:45:31.649Z,0
2023-04-16T00:46:31.670Z,0
2023-04-16T00:47:31.765Z,0
2023-04-16T00:48:31.669Z,0
2023-04-16T00:49:31.676Z,0
2023-04-16T00:50:31.705Z,0
2023-04-16T00:51:31.668Z,0
2023-04-16T00:52:31.672Z,0
2023-04-16T00:53:31.636Z,0
2023-04-16T00:54:31.618Z,0
2023-04-16T00:55:31.656Z,0
2023-04-16T00:56:31.642Z,0
2023-04-16T00:57:31.672Z,0
2023-04-16T00:58:31.641Z,0
2023-04-16T00:59:31.638Z,0
2023-04-16T01:00:31.692Z,0
2023-04-16T01:01:31.731Z,0
2023-04-16T01:02:31.760Z,0
2023-04-16T01:03:31.847Z,0
2023-04-16T01:04:31.728Z,0
2023-04-16T01:05:31.696Z,0
2023-04-16T01:06:31.658Z,0
2023-04-16T01:07:31.642Z,0
2023-04-16T01:08:31.659Z,0
2023-04-16T01:09:31.628Z,0
2023-04-16T01:10:31.627Z,0
2023-04-16T01:11:31.712Z,0
2023-04-16T01:12:31.687Z,0
2023-04-16T01:13:31.646Z,0
2023-04-16T01:14:31.628Z,0
2023-04-16T01:15:31.662Z,0
2023-04-16T01:16:31.645Z,0
2023-04-16T01:17:31.675Z,0
2023-04-16T01:18:31.644Z,0
2023-04-16T01:19:31.658Z,0
2023-04-16T01:20:31.659Z,0
2023-04-16T01:21:31.684Z,0
2023-04-16T01:22:31.660Z,0
2023-04-16T01:23:31.637Z,0
2023-04-16T01:24:31.643Z,0
2023-04-16T01:25:31.666Z,0
2023-04-16T01:26:31.697Z,0
2023-04-16T01:27:31.627Z,0
2023-04-16T01:28:31.658Z,0
2023-04-16T01:29:31.681Z,0
2023-04-16T01:30:31.653Z,0
2023-04-16T01:31:31.679Z,0
2023-04-16T01:32:31.708Z,0
2023-04-16T01:33:31.697Z,0
2023-04-16T01:34:31.664Z,0
2023-04-16T01:35:31.664Z,0
2023-04-16T01:36:31.654Z,0
2023-04-16T01:37:31.662Z,0
2023-04-16T01:38:31.650Z,0
2023-04-16T01:39:31.618Z,0
2023-04-16T01:40:31.763Z,0
2023-04-16T01:41:31.801Z,0
2023-04-16T01:42:31.806Z,0
2023-04-16T01:43:31.874Z,0
2023-04-16T01:44:31.804Z,0
2023-04-16T01:45:31.865Z,0
2023-04-16T01:46:31.899Z,0
2023-04-16T01:47:31.805Z,0
2023-04-16T01:48:31.780Z,0
2023-04-16T01:49:31.760Z,0
2023-04-16T01:50:31.777Z,0
2023-04-16T01:51:31.699Z,0
2023-04-16T01:52:31.790Z,0
2023-04-16T01:53:31.854Z,0
2023-04-16T01:54:31.762Z,0
2023-04-16T01:55:31.779Z,0
2023-04-16T01:56:31.754Z,0
2023-04-16T01:57:31.653Z,0
2023-04-16T01:58:31.659Z,0
2023-04-16T01:59:31.645Z,0
2023-04-16T02:00:31.657Z,0
2023-04-16T02:01:31.955Z,0
2023-04-16T02:02:31.757Z,0
2023-04-16T02:03:31.827Z,0
2023-04-16T02:04:31.611Z,0
2023-04-16T02:05:31.670Z,0
2023-04-16T02:06:31.651Z,0
2023-04-16T02:07:31.645Z,0
2023-04-16T02:08:31.611Z,0
2023-04-16T02:09:31.660Z,0
2023-04-16T02:10:31.658Z,0
2023-04-16T02:11:31.740Z,0
2023-04-16T02:12:31.647Z,0
2023-04-16T02:13:31.666Z,0
2023-04-16T02:14:31.635Z,0
2023-04-16T02:15:31.634Z,0
2023-04-16T02:16:31.715Z,0
2023-04-16T02:17:31.677Z,0
2023-04-16T02:18:31.650Z,0
2023-04-16T02:19:31.637Z,0
2023-04-16T02:20:31.635Z,0
2023-04-16T02:21:31.665Z,0
2023-04-16T02:22:31.653Z,0
2023-04-16T02:23:31.646Z,0
2023-04-16T02:24:31.653Z,0
2023-04-16T02:25:31.620Z,0
2023-04-16T02:26:31.625Z,0
2023-04-16T02:27:31.636Z,0
2023-04-16T02:28:31.644Z,0
2023-04-16T02:29:31.644Z,0
2023-04-16T02:30:31.649Z,0
2023-04-16T02:31:31.634Z,0
2023-04-16T02:32:31.674Z,0
2023-04-16T02:33:31.713Z,0
2023-04-16T02:34:31.638Z,0
2023-04-16T02:35:31.644Z,0
2023-04-16T02:36:31.655Z,0
2023-04-16T02:37:31.643Z,0
2023-04-16T02:38:31.622Z,0
2023-04-16T02:39:31.624Z,0
2023-04-16T02:40:31.660Z,0
2023-04-16T02:41:31.628Z,0
2023-04-16T02:42:31.648Z,0
2023-04-16T02:43:31.615Z,0
2023-04-16T02:44:31.656Z,0
2023-04-16T02:45:31.738Z,0
2023-04-16T02:46:31.702Z,0
2023-04-16T02:47:31.638Z,0
2023-04-16T02:48:31.686Z,0
2023-04-16T02:49:31.625Z,0
2023-04-16T02:50:31.631Z,0
2023-04-16T02:51:31.657Z,0
2023-04-16T02:52:31.668Z,0
2023-04-16T02:53:31.734Z,0
2023-04-16T02:54:31.650Z,0
2023-04-16T02:55:31.626Z,0
2023-04-16T02:56:31.662Z,0
2023-04-16T02:57:31.635Z,0
2023-04-16T02:58:31.628Z,0
2023-04-16T02:59:31.642Z,0
2023-04-16T03:00:31.637Z,0
2023-04-16T03:01:31.701Z,0
2023-04-16T03:02:31.734Z,0
2023-04-16T03:03:31.618Z,0
2023-04-16T03:04:31.727Z,0
2023-04-16T03:05:31.629Z,0
2023-04-16T03:06:31.675Z,0
2023-04-16T03:07:31.612Z,0
2023-04-16T03:08:31.669Z,0
2023-04-16T03:09:31.632Z,0
2023-04-16T03:10:31.765Z,0
2023-04-16T03:11:31.642Z,0
2023-04-16T03:12:31.658Z,0
2023-04-16T03:13:31.651Z,0
2023-04-16T03:14:31.669Z,0
2023-04-16T03:15:31.684Z,0
2023-04-16T03:16:31.632Z,0
2023-04-16T03:17:31.643Z,0
2023-04-16T03:18:31.642Z,0
2023-04-16T03:19:31.612Z,0
2023-04-16T03:20:31.629Z,0
2023-04-16T03:21:31.676Z,0
2023-04-16T03:22:31.752Z,0
2023-04-16T03:23:31.665Z,0
2023-04-16T03:24:31.641Z,0
2023-04-16T03:25:31.805Z,0
2023-04-16T03:26:31.659Z,0
2023-04-16T03:27:31.772Z,0
2023-04-16T03:28:31.636Z,0
2023-04-16T03:29:31.743Z,0
2023-04-16T03:30:31.743Z,0
2023-04-16T03:31:31.833Z,0
2023-04-16T03:32:31.798Z,0.36
2023-04-16T03:33:31.637Z,0
2023-04-16T03:34:31.624Z,0
2023-04-16T03:35:31.659Z,0
2023-04-16T03:36:31.700Z,0.85
2023-04-16T03:37:31.801Z,0.36
2023-04-16T03:38:31.759Z,0.36
2023-04-16T03:39:31.696Z,0.85
2023-04-16T03:40:31.750Z,0.36
2023-04-16T03:41:31.665Z,1.22
2023-04-16T03:42:31.711Z,0.85
2023-04-16T03:43:31.751Z,1.71
2023-04-16T03:44:31.664Z,1.22
2023-04-16T03:45:31.779Z,2.08
2023-04-16T03:46:31.824Z,2.57
2023-04-16T03:47:31.821Z,2.08
2023-04-16T03:48:31.714Z,2.57
2023-04-16T03:49:31.731Z,2.08
2023-04-16T03:50:31.732Z,2.94
2023-04-16T03:51:31.783Z,2.94
2023-04-16T03:52:31.630Z,3.79
2023-04-16T03:53:31.641Z,3.79
2023-04-16T03:54:31.637Z,3.79
2023-04-16T03:55:31.609Z,3.43
2023-04-16T03:56:31.606Z,3.79
2023-04-16T03:57:31.621Z,4.28
2023-04-16T03:58:31.634Z,4.77
2023-04-16T03:59:31.637Z,4.77
2023-04-16T04:00:31.628Z,5.14
2023-04-16T04:01:31.640Z,5.99
2023-04-16T04:02:31.751Z,5.99
2023-04-16T04:03:31.917Z,5.63
2023-04-16T04:04:31.709Z,6.48
2023-04-16T04:05:31.640Z,6.48
2023-04-16T04:06:31.677Z,6.48
2023-04-16T04:07:31.670Z,6.85
2023-04-16T04:08:31.612Z,7.7
2023-04-16T04:09:31.621Z,7.7
2023-04-16T04:10:31.640Z,8.19
2023-04-16T04:11:31.640Z,8.56
2023-04-16T04:12:31.668Z,8.19
2023-04-16T04:13:31.634Z,8.19
2023-04-16T04:14:31.641Z,9.54
2023-04-16T04:15:31.663Z,8.56
2023-04-16T04:16:31.733Z,9.05
2023-04-16T04:17:31.703Z,9.54
2023-04-16T04:18:31.595Z,9.91
2023-04-16T04:19:31.625Z,9.91
2023-04-16T04:20:31.629Z,10.77
2023-04-16T04:21:31.642Z,10.39
2023-04-16T04:22:31.631Z,11.25
2023-04-16T04:23:31.643Z,11.25
2023-04-16T04:24:31.643Z,11.62
2023-04-16T04:25:31.652Z,12.11
2023-04-16T04:26:31.668Z,11.62
2023-04-16T04:27:31.642Z,12.11
2023-04-16T04:28:31.657Z,12.48
2023-04-16T04:29:31.682Z,13.33
2023-04-16T04:30:31.629Z,13.33
2023-04-16T04:31:31.655Z,13.82
2023-04-16T04:32:31.649Z,13.82
2023-04-16T04:33:31.654Z,14.31
2023-04-16T04:34:31.643Z,14.31
2023-04-16T04:35:31.620Z,14.31
2023-04-16T04:36:31.624Z,14.68
2023-04-16T04:37:31.622Z,15.53
2023-04-16T04:38:31.652Z,15.53
2023-04-16T04:39:31.603Z,16.39
2023-04-16T04:40:31.652Z,16.02
2023-04-16T04:41:31.613Z,15.17
2023-04-16T04:42:31.619Z,16.02
2023-04-16T04:43:31.716Z,16.02
2023-04-16T04:44:31.700Z,16.39
2023-04-16T04:45:32.209Z,17.25
2023-04-16T04:46:31.617Z,18.11
2023-04-16T04:47:31.625Z,19.08
2023-04-16T04:48:31.648Z,18.6
2023-04-16T04:49:31.661Z,19.08
2023-04-16T04:50:31.634Z,21.65
2023-04-16T04:51:31.613Z,23.85
2023-04-16T04:52:31.641Z,22.02
2023-04-16T04:53:31.637Z,22.02
2023-04-16T04:54:31.630Z,21.16
2023-04-16T04:55:31.674Z,20.31
2023-04-16T04:56:31.633Z,21.16
2023-04-16T04:57:31.635Z,22.87
2023-04-16T04:58:31.629Z,27.65
2023-04-16T04:59:31.618Z,28.14
2023-04-16T05:00:31.672Z,29.48
2023-04-16T05:01:31.661Z,29.85
2023-04-16T05:02:31.691Z,32.9
2023-04-16T05:03:31.767Z,31.19
2023-04-16T05:04:31.635Z,32.42
2023-04-16T05:05:31.657Z,36.33
2023-04-16T05:06:31.669Z,35.48
2023-04-16T05:07:31.617Z,36.82
2023-04-16T05:08:31.646Z,41.1
2023-04-16T05:09:31.635Z,43.8
2023-04-16T05:10:31.645Z,47.71
2023-04-16T05:11:31.619Z,48.93
2023-04-16T05:12:31.647Z,49.79
2023-04-16T05:13:31.619Z,50.65
2023-04-16T05:14:31.622Z,56.27
2023-04-16T05:15:31.618Z,61.53
2023-04-16T05:16:31.650Z,56.27
2023-04-16T05:17:31.731Z,49.42
2023-04-16T05:18:31.612Z,49.42
2023-04-16T05:19:31.597Z,43.8
2023-04-16T05:20:31.675Z,41.1
2023-04-16T05:21:31.639Z,46.73
2023-04-16T05:22:31.611Z,45.87
2023-04-16T05:23:31.616Z,52.48
2023-04-16T05:24:31.631Z,67.65
2023-04-16T05:25:31.611Z,72.42
2023-04-16T05:26:31.625Z,72.79
2023-04-16T05:27:31.624Z,72.79
2023-04-16T05:28:31.663Z,62.88
2023-04-16T05:29:31.623Z,50.28
2023-04-16T05:30:31.665Z,61.17
2023-04-16T05:31:31.615Z,60.68
2023-04-16T05:32:31.631Z,60.68
2023-04-16T05:33:31.629Z,67.16
2023-04-16T05:34:31.693Z,68.51
2023-04-16T05:35:31.610Z,65.45
2023-04-16T05:36:31.626Z,67.65
2023-04-16T05:37:31.630Z,71.56
2023-04-16T05:38:31.630Z,71.07
2023-04-16T05:39:31.595Z,77.56
2023-04-16T05:40:31.611Z,94.93
2023-04-16T05:41:31.602Z,104.1
2023-04-16T05:42:31.621Z,99.7
2023-04-16T05:43:31.594Z,97.99
2023-04-16T05:44:31.640Z,101.41
2023-04-16T05:45:31.609Z,105.82
2023-04-16T05:46:31.709Z,113.65
2023-04-16T05:47:31.660Z,113.65
2023-04-16T05:48:31.637Z,114.87
2023-04-16T05:49:31.607Z,121.85
2023-04-16T05:50:31.594Z,128.82
2023-04-16T05:51:31.624Z,125.76
2023-04-16T05:52:31.605Z,121.85
2023-04-16T05:53:31.608Z,118.42
2023-04-16T05:54:31.605Z,110.1
2023-04-16T05:55:31.614Z,127.47
2023-04-16T05:56:31.673Z,141.78
2023-04-16T05:57:31.623Z,134.44
2023-04-16T05:58:31.596Z,133.59
2023-04-16T05:59:31.623Z,123.19
2023-04-16T06:00:31.655Z,124.41
2023-04-16T06:01:32.816Z,136.65
2023-04-16T06:02:31.772Z,146.56
2023-04-16T06:03:31.749Z,151.33
2023-04-16T06:04:31.640Z,153.53
2023-04-16T06:05:31.637Z,138.73
2023-04-16T06:06:31.621Z,136.16
2023-04-16T06:07:31.655Z,139.58
2023-04-16T06:08:31.650Z,127.47
2023-04-16T06:09:31.623Z,130.04
2023-04-16T06:10:31.612Z,120.5
2023-04-16T06:11:31.632Z,103.13
2023-04-16T06:12:31.660Z,81.1
2023-04-16T06:13:31.626Z,108.39
2023-04-16T06:14:31.627Z,123.19
2023-04-16T06:15:31.665Z,109.24
2023-04-16T06:16:31.799Z,111.44
2023-04-16T06:17:31.642Z,94.07
2023-04-16T06:18:31.620Z,86.73
2023-04-16T06:19:31.586Z,114.87
2023-04-16T06:20:31.635Z,128.82
2023-04-16T06:21:31.632Z,116.58
2023-04-16T06:22:31.611Z,96.65
2023-04-16T06:23:31.607Z,103.61
2023-04-16T06:24:31.624Z,101.05
2023-04-16T06:25:31.639Z,100.19
2023-04-16T06:26:31.627Z,92.73
2023-04-16T06:27:31.614Z,85.02
2023-04-16T06:28:31.623Z,108.39
2023-04-16T06:29:40.702Z,116.22
2023-04-16T06:30:31.598Z,105.33
2023-04-16T06:31:31.631Z,119.64
2023-04-16T06:32:31.637Z,93.22
2023-04-16T06:33:31.631Z,73.65
2023-04-16T06:34:31.637Z,62.88
2023-04-16T06:35:31.606Z,89.79
2023-04-16T06:36:31.635Z,84.53
2023-04-16T06:37:31.631Z,79.27
2023-04-16T06:38:31.580Z,92.36
2023-04-16T06:39:31.591Z,89.79
2023-04-16T06:40:31.605Z,74.14
2023-04-16T06:41:31.642Z,127.96
2023-04-16T06:42:31.613Z,141.78
2023-04-16T06:43:31.611Z,218.98
2023-04-16T06:44:31.615Z,218.12
2023-04-16T06:45:31.613Z,186.93
2023-04-16T06:46:31.648Z,191.7
2023-04-16T06:47:31.630Z,161.73
2023-04-16T06:48:31.615Z,123.56
2023-04-16T06:49:31.627Z,124.05
2023-04-16T06:50:31.586Z,113.16
2023-04-16T06:51:31.605Z,132.73
2023-04-16T06:52:31.613Z,141.42
2023-04-16T06:53:31.632Z,110.59
2023-04-16T06:54:31.591Z,109.24
2023-04-16T06:55:31.628Z,98.36
2023-04-16T06:56:31.697Z,131.39
2023-04-16T06:57:31.641Z,159.16
2023-04-16T06:58:31.628Z,164.29
2023-04-16T06:59:31.617Z,136.16
2023-04-16T07:00:31.672Z,121.36
2023-04-16T07:01:31.817Z,122.34
2023-04-16T07:02:31.752Z,107.53
2023-04-16T07:03:31.723Z,108.88
2023-04-16T07:04:31.581Z,116.58
2023-04-16T07:05:31.615Z,103.61
2023-04-16T07:06:31.599Z,79.76
2023-04-16T07:07:31.613Z,88.45
2023-04-16T07:08:31.642Z,94.56
2023-04-16T07:09:31.636Z,110.1
2023-04-16T07:10:31.581Z,127.96
2023-04-16T07:11:31.608Z,139.22
2023-04-16T07:12:31.604Z,108.88
2023-04-16T07:13:31.602Z,119.64
2023-04-16T07:14:31.592Z,154.39
2023-04-16T07:15:31.611Z,156.1
2023-04-16T07:16:31.661Z,147.05
2023-04-16T07:17:31.649Z,162.22
2023-04-16T07:18:31.641Z,216.41
2023-04-16T07:19:31.650Z,261.07
2023-04-16T07:20:31.673Z,291.03
2023-04-16T07:21:31.672Z,306.69
2023-04-16T07:22:31.608Z,284.06
2023-04-16T07:23:31.604Z,294.95
2023-04-16T07:24:31.637Z,294.1
2023-04-16T07:25:31.648Z,275.37
2023-04-16T07:26:31.656Z,245.52
2023-04-16T07:27:31.638Z,228.52
2023-04-16T07:28:31.620Z,249.81
2023-04-16T07:29:31.592Z,264.61
2023-04-16T07:30:31.621Z,286.63
2023-04-16T07:31:31.759Z,307.55
2023-04-16T07:32:31.642Z,310.98
2023-04-16T07:33:31.606Z,333.12
2023-04-16T07:34:31.616Z,354.78
2023-04-16T07:35:31.586Z,368.23
2023-04-16T07:36:31.618Z,373
2023-04-16T07:37:31.609Z,361.74
2023-04-16T07:38:31.629Z,365.17
2023-04-16T07:39:31.690Z,363.09
2023-04-16T07:40:31.620Z,363.09
2023-04-16T07:41:31.600Z,345.72
2023-04-16T07:42:31.662Z,333.49
2023-04-16T07:43:31.592Z,336.18
2023-04-16T07:44:31.590Z,330.92
2023-04-16T07:45:31.606Z,331.78
2023-04-16T07:46:43.594Z,338.75
2023-04-16T07:47:31.695Z,345.72
2023-04-16T07:48:31.582Z,362.12
2023-04-16T07:49:31.609Z,382.54
2023-04-16T07:50:31.629Z,398.57
2023-04-16T07:51:31.620Z,407.74
2023-04-16T07:52:31.618Z,416.8
2023-04-16T07:53:31.622Z,421.57
2023-04-16T07:54:31.667Z,422.42
2023-04-16T07:55:31.616Z,422.91
2023-04-16T07:56:31.640Z,423.28
2023-04-16T07:57:31.595Z,425.49
2023-04-16T07:58:31.600Z,429.89
2023-04-16T07:59:31.617Z,432.45
2023-04-16T08:00:31.612Z,438.57
2023-04-16T08:01:31.620Z,443.35
2023-04-16T08:02:31.802Z,463.65
2023-04-16T08:03:31.823Z,446.77
2023-04-16T08:04:31.762Z,447.26
2023-04-16T08:05:31.589Z,451.05
2023-04-16T08:06:31.644Z,454.6
2023-04-16T08:07:33.924Z,454.11
2023-04-16T08:08:31.615Z,454.96
2023-04-16T08:09:31.614Z,455.45
2023-04-16T08:10:31.619Z,456.8
2023-04-16T08:11:31.585Z,459.37
2023-04-16T08:12:31.599Z,492.77
2023-04-16T08:13:33.527Z,468.91
2023-04-16T08:14:31.619Z,475.4
2023-04-16T08:15:31.679Z,477.96
2023-04-16T08:16:31.622Z,481.88
2023-04-16T08:17:31.632Z,485.43
2023-04-16T08:18:31.643Z,488.86
2023-04-16T08:19:31.604Z,522.74
2023-04-16T08:20:31.594Z,496.69
2023-04-16T08:21:31.603Z,502.31
2023-04-16T08:22:31.626Z,508.79
2023-04-16T08:23:31.580Z,512.22
2023-04-16T08:24:31.604Z,510.99
2023-04-16T08:25:31.599Z,517.48
2023-04-16T08:26:31.595Z,520.54
2023-04-16T08:27:31.603Z,524.45
2023-04-16T08:28:31.599Z,528.37
2023-04-16T08:29:31.605Z,533.99
2023-04-16T08:30:31.600Z,546.11
2023-04-16T08:31:31.868Z,535.71
2023-04-16T08:32:31.612Z,533.5
2023-04-16T08:33:31.616Z,532.65
2023-04-16T08:34:31.586Z,527.88
2023-04-16T08:35:31.612Z,523.11
2023-04-16T08:36:31.666Z,522.25
2023-04-16T08:37:31.595Z,522.74
2023-04-16T08:38:31.584Z,525.67
2023-04-16T08:39:31.614Z,528.74
2023-04-16T08:40:31.631Z,531.3
2023-04-16T08:41:31.610Z,536.57
2023-04-16T08:42:31.610Z,544.76
2023-04-16T08:43:31.645Z,554.3
2023-04-16T08:44:31.597Z,562.62
2023-04-16T08:45:31.597Z,565.19
2023-04-16T08:46:31.669Z,563.84
2023-04-16T08:47:31.662Z,565.19
2023-04-16T08:48:31.587Z,560.91
2023-04-16T08:49:31.599Z,559.08
2023-04-16T08:50:31.598Z,558.22
2023-04-16T08:51:31.605Z,555.65
2023-04-16T08:52:31.620Z,550.51
2023-04-16T08:53:31.601Z,547.82
2023-04-16T08:54:31.607Z,551.37
2023-04-16T08:55:31.626Z,469.77
2023-04-16T08:56:31.605Z,556.5
2023-04-16T08:57:31.612Z,523.11
2023-04-16T08:58:31.619Z,565.19
2023-04-16T08:59:31.612Z,568.62
2023-04-16T09:00:31.583Z,534.36
2023-04-16T09:01:31.631Z,588.19
2023-04-16T09:02:31.763Z,524.82
2023-04-16T09:03:33.375Z,539.99
2023-04-16T09:04:31.640Z,592.96
2023-04-16T09:05:31.615Z,597.25
2023-04-16T09:06:31.614Z,599.08
2023-04-16T09:07:31.649Z,597.73
2023-04-16T09:08:31.568Z,598.22
2023-04-16T09:09:33.414Z,597.73
2023-04-16T09:10:31.599Z,596.02
2023-04-16T09:11:31.612Z,551.74
2023-04-16T09:12:31.606Z,599.45
2023-04-16T09:13:31.609Z,491.91
2023-04-16T09:14:31.580Z,356.12
2023-04-16T09:15:32.879Z,370.43
2023-04-16T09:16:31.629Z,410.81
2023-04-16T09:17:31.662Z,483.59
2023-04-16T09:18:31.575Z,464.14
2023-04-16T09:19:31.600Z,413.74
2023-04-16T09:20:31.589Z,425.97
2023-04-16T09:21:31.596Z,471.48
2023-04-16T09:22:31.610Z,437.72
2023-04-16T09:23:31.677Z,480.66
2023-04-16T09:24:31.590Z,492.77
2023-04-16T09:25:31.606Z,492.28
2023-04-16T09:26:31.602Z,429.03
2023-04-16T09:27:31.631Z,393.8
2023-04-16T09:28:31.575Z,354.78
2023-04-16T09:29:31.636Z,401.26
2023-04-16T09:30:31.602Z,524.82
2023-04-16T09:31:31.671Z,389.03
2023-04-16T09:32:31.603Z,399.42
2023-04-16T09:33:32.856Z,543.54
2023-04-16T09:34:31.579Z,399.91
2023-04-16T09:35:31.559Z,513.2
2023-04-16T09:36:31.572Z,494.48
2023-04-16T09:37:31.652Z,461.08
2023-04-16T09:38:31.587Z,438.57
2023-04-16T09:39:31.575Z,408.11
2023-04-16T09:40:31.599Z,563.84
2023-04-16T09:41:31.633Z,284.55
2023-04-16T09:42:31.575Z,232.07
2023-04-16T09:43:31.633Z,599.94
2023-04-16T09:44:31.609Z,606.79
2023-04-16T09:45:31.651Z,392.94
2023-04-16T09:46:31.601Z,291.4
2023-04-16T09:47:31.658Z,458.88
2023-04-16T09:48:31.616Z,426.34
2023-04-16T09:49:31.627Z,329.69
2023-04-16T09:50:31.596Z,360.4
2023-04-16T09:51:31.629Z,351.35
2023-04-16T09:52:31.616Z,328.35
2023-04-16T09:53:31.623Z,336.54
2023-04-16T09:54:31.574Z,253.24
2023-04-16T09:55:31.576Z,382.54
2023-04-16T09:56:31.625Z,477.96
2023-04-16T09:57:31.612Z,429.4
2023-04-16T09:58:31.609Z,448.97
2023-04-16T09:59:31.574Z,468.42
2023-04-16T10:00:31.746Z,402.12
2023-04-16T10:01:31.703Z,463.28
2023-04-16T10:02:31.669Z,501.82
2023-04-16T10:03:31.762Z,562.13
2023-04-16T10:04:31.630Z,344.86
2023-04-16T10:05:31.613Z,314.4
2023-04-16T10:06:31.603Z,272.32
2023-04-16T10:07:31.606Z,275.86
2023-04-16T10:08:31.626Z,243.32
2023-04-16T10:09:31.625Z,332.63
2023-04-16T10:10:31.604Z,410.32
2023-04-16T10:11:31.594Z,369.08
2023-04-16T10:12:31.571Z,413.74
2023-04-16T10:13:31.631Z,307.06
2023-04-16T10:14:31.593Z,348.78
2023-04-16T10:15:31.541Z,227.66
2023-04-16T10:16:31.613Z,260.69
2023-04-16T10:17:31.629Z,285.41
2023-04-16T10:18:31.577Z,182.53
2023-04-16T10:19:31.597Z,243.32
2023-04-16T10:20:31.582Z,287.12
2023-04-16T10:21:31.623Z,206.87
2023-04-16T10:22:31.593Z,254.21
2023-04-16T10:23:31.570Z,271.1
2023-04-16T10:24:31.595Z,229.87
2023-04-16T10:25:31.589Z,256.78
2023-04-16T10:26:31.615Z,276.72
2023-04-16T10:27:31.537Z,202.95
2023-04-16T10:28:31.653Z,150.96
2023-04-16T10:29:31.609Z,162.22
2023-04-16T10:30:31.590Z,230.73
2023-04-16T10:31:31.558Z,162.22
2023-04-16T10:32:31.615Z,73.28
2023-04-16T10:33:31.587Z,95.42
2023-04-16T10:34:31.569Z,107.9
2023-04-16T10:35:31.552Z,272.81
2023-04-16T10:36:31.624Z,336.18
2023-04-16T10:37:31.598Z,212.49
2023-04-16T10:38:31.575Z,240.27
2023-04-16T10:39:31.539Z,173.84
2023-04-16T10:40:31.597Z,117.44
2023-04-16T10:41:31.592Z,256.78
2023-04-16T10:42:31.573Z,252.38
2023-04-16T10:43:31.543Z,318.32
2023-04-16T10:44:31.640Z,328.71
2023-04-16T10:45:31.593Z,367.37
2023-04-16T10:46:31.688Z,211.64
2023-04-16T10:47:31.546Z,317.1
2023-04-16T10:48:46.614Z,266.69
2023-04-16T10:49:31.576Z,280.15
2023-04-16T10:50:31.570Z,114.87
2023-04-16T10:51:31.635Z,258.49
2023-04-16T10:52:31.669Z,247.61
2023-04-16T10:53:31.605Z,247.24
2023-04-16T10:54:31.636Z,318.81
2023-04-16T10:55:31.519Z,341.81
2023-04-16T10:56:31.600Z,97.99
2023-04-16T10:57:31.606Z,67.65
2023-04-16T10:58:31.572Z,67.65
2023-04-16T10:59:31.465Z,450.69
2023-04-16T11:00:31.599Z,114.51
2023-04-16T11:01:31.681Z,399.06
2023-04-16T11:02:31.745Z,404.2
2023-04-16T11:03:31.582Z,598.22
2023-04-16T11:04:31.789Z,536.08
2023-04-16T11:05:31.581Z,533.14
2023-04-16T11:06:31.600Z,406.4
2023-04-16T11:07:31.479Z,281.86
2023-04-16T11:08:32.062Z,204.66
2023-04-16T11:09:31.590Z,241.61
2023-04-16T11:10:31.570Z,240.27
2023-04-16T11:11:31.508Z,342.17
2023-04-16T11:12:31.632Z,360.89
2023-04-16T11:13:31.575Z,300.58
2023-04-16T11:14:31.576Z,359.18
2023-04-16T11:15:31.583Z,290.18
2023-04-16T11:16:31.629Z,317.1
2023-04-16T11:17:31.665Z,241.61
2023-04-16T11:18:31.572Z,222.04
2023-04-16T11:19:31.439Z,415.94
2023-04-16T11:20:31.656Z,380.34
2023-04-16T11:21:31.612Z,483.23
2023-04-16T11:22:31.583Z,522.74
2023-04-16T11:23:31.499Z,517.97
2023-04-16T11:24:31.614Z,459.37
2023-04-16T11:25:31.696Z,565.68
2023-04-16T11:26:31.573Z,610.33
2023-04-16T11:27:31.478Z,537.91
2023-04-16T11:28:31.573Z,551.74
2023-04-16T11:29:31.583Z,408.97
2023-04-16T11:30:31.576Z,381.69
2023-04-16T11:31:31.458Z,447.62
2023-04-16T11:32:31.596Z,417.66
2023-04-16T11:33:31.641Z,520.91
2023-04-16T11:34:31.573Z,515.28
2023-04-16T11:35:31.422Z,562.99
2023-04-16T11:36:31.577Z,609.48
2023-04-16T11:37:31.586Z,587.7
2023-04-16T11:38:31.561Z,541.82
2023-04-16T11:39:31.456Z,482.74
2023-04-16T11:40:31.773Z,201.24
2023-04-16T11:41:31.577Z,224.24
2023-04-16T11:42:31.602Z,536.08
2023-04-16T11:43:31.415Z,450.2
2023-04-16T11:44:31.555Z,435.03
2023-04-16T11:45:31.561Z,366.03
2023-04-16T11:46:31.578Z,337.03
2023-04-16T11:47:31.533Z,317.46
2023-04-16T11:48:31.550Z,442.86
2023-04-16T11:49:31.577Z,509.28
2023-04-16T11:50:31.583Z,589.53
2023-04-16T11:51:31.381Z,524.82
2023-04-16T11:52:31.615Z,525.67
2023-04-16T11:53:31.583Z,481.52
2023-04-16T11:54:31.587Z,500.6
2023-04-16T11:55:31.418Z,396
2023-04-16T11:56:31.570Z,419.49
2023-04-16T11:57:31.616Z,448.48
2023-04-16T11:58:31.556Z,314.4
2023-04-16T11:59:31.416Z,242.47
2023-04-16T12:00:31.583Z,300.09
2023-04-16T12:01:31.578Z,278.93
2023-04-16T12:02:31.727Z,322.72
2023-04-16T12:03:31.604Z,472.83
2023-04-16T12:04:31.630Z,427.69
2023-04-16T12:05:31.574Z,281.49
2023-04-16T12:06:31.545Z,298.01
2023-04-16T12:07:31.387Z,337.4
2023-04-16T12:08:31.575Z,325.29
2023-04-16T12:09:31.565Z,294.1
2023-04-16T12:10:31.592Z,305.84
2023-04-16T12:11:31.379Z,267.55
2023-04-16T12:12:32.301Z,380.83
2023-04-16T12:13:31.600Z,337.4
2023-04-16T12:14:31.557Z,356.98
2023-04-16T12:15:31.394Z,229.87
2023-04-16T12:16:31.587Z,264.98
2023-04-16T12:17:31.578Z,379.49
2023-04-16T12:18:31.625Z,275.37
2023-04-16T12:19:31.398Z,301.93
2023-04-16T12:20:31.595Z,237.7
2023-04-16T12:21:31.595Z,323.95
2023-04-16T12:22:31.566Z,247.61
2023-04-16T12:23:31.342Z,306.69
2023-04-16T12:24:31.551Z,324.44
2023-04-16T12:25:31.588Z,340.46
2023-04-16T12:26:31.579Z,365.17
2023-04-16T12:27:31.353Z,346.57
2023-04-16T12:28:31.602Z,413.74
2023-04-16T12:29:31.591Z,309.63
2023-04-16T12:30:31.572Z,322.23
2023-04-16T12:31:31.316Z,370.43
2023-04-16T12:32:31.634Z,399.06
2023-04-16T12:33:31.720Z,427.69
2023-04-16T12:34:49.202Z,434.17
2023-04-16T12:35:31.296Z,441.14
2023-04-16T12:36:31.634Z,472.83
2023-04-16T12:37:31.569Z,467.2
2023-04-16T12:38:31.549Z,491.91
2023-04-16T12:39:31.306Z,504.51
2023-04-16T12:40:31.570Z,507.08
2023-04-16T12:41:31.634Z,509.28
2023-04-16T12:42:31.563Z,507.08
2023-04-16T12:43:31.305Z,448.11
2023-04-16T12:44:31.600Z,452.03
2023-04-16T12:45:31.567Z,504.51
2023-04-16T12:46:31.626Z,501.82
2023-04-16T12:47:31.431Z,493.62
2023-04-16T12:48:31.616Z,444.57
2023-04-16T12:49:31.577Z,448.97
2023-04-16T12:50:31.611Z,378.26
2023-04-16T12:51:31.315Z,237.7
2023-04-16T12:52:31.576Z,310.12
2023-04-16T12:53:31.589Z,273.66
2023-04-16T12:54:31.580Z,223.75
2023-04-16T12:55:31.277Z,403.83
2023-04-16T12:56:31.568Z,402.49
2023-04-16T12:57:31.719Z,436.74
2023-04-16T12:58:31.572Z,426.34
2023-04-16T12:59:31.339Z,414.72
2023-04-16T13:00:31.557Z,426.34
2023-04-16T13:01:31.618Z,420.71
2023-04-16T13:02:31.611Z,426.34
2023-04-16T13:03:31.485Z,393.8
2023-04-16T13:04:31.645Z,408.11
2023-04-16T13:05:31.563Z,399.42
2023-04-16T13:06:31.607Z,423.77
2023-04-16T13:07:31.260Z,415.08
2023-04-16T13:08:31.603Z,435.03
2023-04-16T13:09:31.581Z,428.54